Airfield :
LOGIN :

Register | Disclaimer

   EN    FR    IT 

 










Legend :    VFR   Marginal VFR   IFR   Intensive IFR   Very Intensive IFR
Visi :
Ceiling :
>= 8 km
>= 3000ft
5 to 8 km
1000 to 3000 ft
1500m to 5 km
500 to 1000 ft
800 to 1500m
200 to 500 ft
< 800m
< 200 ft
Symbols :   Thunderstorms  Fog  Heavy snow  Heavy precipitations  Wind > 20 kt
SIGMETs :     Misc.  Thunderstorms  Icing  Turbulence  Mountain Waves  Volcanic Ashes






- Airport Elevation : 63 ft
- IATA code : BZM


EHWO - Woensdrecht Airbase

CURRENT METAR :
  • 282030Z AUTO 22002KT 9000 BR BKN013 OVC025 07/07 Q1013 GRN

EXPIRED METARs :
  • 282029Z AUTO 22002KT 9000 BR SCT013 OVC027 07/07 Q1013 GRN
  • 282013Z AUTO 25001KT 8000 BR FEW021 BKN025 OVC028 07/07 Q1013 BLU
  • 282011Z AUTO VRB02KT 9000 BR SCT021 BKN025 OVC029 07/07 Q1013 WHT
  • 281955Z AUTO 19003KT 160V310 8000 BR SCT018 BKN021 OVC026 07/07 Q1012 WHT
  • 281942Z AUTO 18002KT 5000 BR SCT015 BKN019 OVC024 07/06 Q1012 WHT
  • 281939Z AUTO 18002KT 4000 BR OVC014 07/07 Q1012 GRN
  • 281925Z AUTO 13001KT 2200 BR BKN013 OVC018 06/06 Q1012 YLO
  • 281911Z AUTO 00000KT 0900 FG BKN012 OVC020 06/06 Q1012 AMB
  • 281855Z AUTO VRB01KT 0500 FG BKN012 OVC170 06/06 Q1012 RED
  • 281838Z AUTO 15001KT 0650 FG BKN013 OVC130 06/06 Q1012 RED
  • 281829Z AUTO 13001KT 1600 BR OVC013 07/07 Q1012 YLO
  • 281825Z AUTO 12001KT 1400 BR OVC014 07/07 Q1012 AMB
  • 281806Z AUTO 09001KT 2500 BR SCT009 BKN013 OVC130 07/07 Q1012 YLO
  • 281758Z AUTO 14001KT 3000 BR FEW013 BKN036 OVC140 07/06 Q1012 YLO
  • 281748Z AUTO VRB02KT 8000 BR OVC130 08/07 Q1012 BLU

TAF TAF EHWO
Valid from the 28 at 10:00 until the 28 at 22:00 UTC


280929Z 2810/2822 22005KT 4000 BR BKN003 OVC004
TEMPO 2810/2815 2000 -DZ BKN002 OVC003
PROB30
TEMPO 2811/2815 9999 NSC
BECMG 2815/2817 VRB02KT 2000 BR
BECMG 2817/2820 0300 FG VV001



MET'MAP, your aeronautical weather chart ! - Copyright ORBIFLY December 2007 - Disclaimer

ORBIFLY MET'MAP TEAM :

Programming & Development : Alexandra Zaïnal
Original concept : Baudouin d'Aumeries
Technical & hardware support : Manuel Goepfert
Assistance : Marc-Olivier Méhu




SOURCES & CREDITS :

   NOAA